METAR-berichten van nabijgelegen luchthavens

 

EHBK - Maastricht-Aachen Airport
Afstand tot station: WZW 9km
Bijgewerkt: 21-07-2018 06:55
Gedeeltelijk bewolkt
Gedeeltelijk bewolkt
 Wind vanuit ZZW
Wind: ZZW 7 km/h
Temperatuur: 17°C
Dauwpunt: 13°C
Vochtigheid: 77%
Luchtdruk: 1011 hPa
Bewolking: Gedeeltelijk bewolkt
Zicht: 10 km
2018/07/21 04:55 EHBK 210455Z AUTO 21004KT 9999 NSC 17/13 Q1011 NOSIG
ETNG - NATO Air Base Geilenkirchen
Afstand tot station: ONO 11km
Bijgewerkt: 20-07-2018 17:50
NIET actueel
Helder
Helder
 Wind vanuit NNW
Wind: NNW 13 km/h
Temperatuur: 28°C
Dauwpunt: 8°C
Vochtigheid: 28%
Luchtdruk: 1012 hPa
Overzicht: Helder
Zicht: groter dan 10 km
2018/07/20 15:50 ETNG 201550Z 33007KT CAVOK 28/08 Q1012 NOSIG